aviador You're here:

KANQ Decoded Metar

in
Report Time2018-05-26 15:15:00
UTC Time2018-05-26 15:36:50
Flight Rules vfr VFR
Wind190° at 08 kt
W.Decomp.*RWY 23: 6.1 kt HW 5.1 kt LCW
W.Rank190° ranks 15
Current wind is above 190° avg. (6.9)
Visibility9999 m
Phenomena:N/A
Clouds:Few 020 Hf
Few 110 Hf
Expected CloudBase > 2,000 ft AGL from Temp-Dew spread
CeilingNone
Temp25°C
Dew Point20°C (74% RH)
QNH1010 hPa
Raw Report
KANQ 261515Z AUTO 19008KT 10SM FEW020 FEW110 25/20 A2982 RMK AO2
TSNO=

Extra information for KANQ:More info

Social comments